Detall de PIREP

Printer-friendly versionPDF version

[2015/04/25 07:38:00]
Flight IATA:CT1060
Pilot Number:016
Company ICAO:CAT
Aircraft Type:B738/F
PAX:108
Departing Airport: LFMP
Destination Airport: LEAL
Alternate Airport:LEPA
Online: VATSIM
Route:BGR UN975 BCN UM985 VLC
Flight Level:F310
No Slew and time accel
No pause
Crash detect
Detect pilot in Cockpit between each 30 and 45 minutes
07:38 Zero fuel Weight: 130241 Lbs, Fuel Weight: 13198 Lbs
07:38 VATSIM:LFMP 251430Z AUTO 06006KT 9999 FEW042/// BKN054/// OVC110/// ///CB 19/15 Q1011
07:38 VATSIM:LEAL 251430Z 16006KT 110V210 CAVOK 23/11 Q1013 NOSIG
07:41 Parking Brakes off
07:52 Take-off
07:52 Take off Weight: 142214 Lbs
07:52 Wind: 062º @ 006 Knots Heading: 145º
07:52 POS N42º 44´ 07´´ E002º 52´ 39´´
07:52 Flaps:3 at 156 Knots
07:52 Gear Up: 157 Knots
07:54 Flaps:2 at 217 Knots
07:55 Flaps:1 at 243 Knots
07:55 Flaps:0 at 245 Knots
08:07 Wind:180º@058 Knots Heading: 226º Ground Speed: 437 Knots Altitude 29763 ft
08:07 TOC
08:07 Fuel Weight: 8710 Lb
08:22 Wind:170º@014 Knots Heading: 226º Ground Speed: 463 Knots Altitude 30961 ft
08:30 TOD
08:30 Fuel Weight: 6200 Lb
08:37 Wind:294º@014 Knots Heading: 171º Ground Speed: 354 Knots Altitude 17411 ft
08:42 Flaps:1 at 230 Knots
08:44 Flaps:2 at 219 Knots
08:45 Flaps:3 at 206 Knots
08:46 Flaps:4 at 190 Knots
08:47 Flaps:5 at 164 Knots
08:51 Flaps:6 at 157 Knots
08:52 Wind:112º@007 Knots Heading: 248º Ground Speed: 166 Knots Altitude 1492 ft
08:52 Gear Down: 150 Knots
08:52 Flaps:7 at 150 Knots
08:54 Flaps:8 at 150 Knots
08:56 TouchDown:Rate -111 ft/min Speed: 132 Knots
08:57 VATSIM:LEAL 251600Z 07006KT 030V110 CAVOK 22/13 Q1012 NOSIG
08:57 Land
08:57 Wind:132º@007 Knots
08:57 Heading: 100º
08:57 Flight Duration: 01:05
08:57 Landing Weight: 134688 Lbs
08:57 POS N38º 16´ 57´´ W000º 33´ 38´´
09:00 Parking brakes on
09:00 Block to Block Duration: 01:19
09:00 Final Fuel: 4168 Lbls
09:00 Spent Fuel: 9030 Lbls
09:00 Flight Length: 374 NM
09:00 TOD Land Length: 115 NM

Exportar CSV

Powered by Drupal - Modified by Danger4k